Time;durP1;ratioP1;P1;durP2;ratioP2;P2;SDS_P1;SDS_P2;PMS_P1;PMS_P2;Temp;Humidity;BMP_temperature;BMP_pressure;BME280_temperature;BME280_humidity;BME280_pressure;Samples;Min_cycle;Max_cycle;Signal;HPM_P1;HPM_P2
2024/02/22 05:43:36;;;;;;;;;;;;;;;2.43;100.00;100519.92;110098;1278;22499;-48
2024/02/22 05:46:03;;;;;;;;;;;;;;;2.41;100.00;100520.91;110182;1264;22517;-47
2024/02/22 05:48:30;;;;;;;;;;;;;;;2.42;100.00;100520.40;110213;1267;22493;-47
2024/02/22 05:50:56;;;;;;;;;;;;;;;2.42;100.00;100526.25;110209;1275;22526;-55
2024/02/22 05:53:23;;;;;;;;;;;;;;;2.43;100.00;100526.80;110211;1267;22442;-56
2024/02/22 05:55:50;;;;;;;;;;;;;;;2.45;100.00;100532.58;110163;1263;22511;-56
2024/02/22 05:58:20;;;;;;;;;;;;;;;2.49;100.00;100534.44;109998;1272;22453;-57
2024/02/22 06:00:46;;;;;;;;;;;;;;;2.54;100.00;100539.61;110147;1267;23220;-48
2024/02/22 06:03:13;;;;;;;;;;;;;;;2.57;100.00;100538.89;110077;1267;22460;-56
2024/02/22 06:05:42;;;;;;;;;;;;;;;2.63;100.00;100535.29;110119;1270;22456;-57
2024/02/22 06:08:09;;;;;;;;;;;;;;;2.68;100.00;100534.60;110104;1271;22457;-48
2024/02/22 06:10:36;;;;;;;;;;;;;;;2.74;100.00;100532.91;110123;1272;22439;-48
2024/02/22 06:13:02;;;;;;;;;;;;;;;2.84;100.00;100534.66;110051;1272;22476;-47
2024/02/22 06:15:29;;;;;;;;;;;;;;;2.94;100.00;100538.61;109982;1272;22439;-47
2024/02/22 06:17:56;;;;;;;;;;;;;;;3.00;100.00;100539.85;110002;1260;22459;-48
2024/02/22 06:20:24;;;;;;;;;;;;;;;3.04;100.00;100540.35;109901;1273;23150;-51
2024/02/22 06:23:03;;;;;;;;;;;;;;;3.07;100.00;100538.00;109947;1271;23557;-52
2024/02/22 06:37:19;;;;;;;;;;;;;;;3.13;100.00;100531.86;109518;1277;22572;-57
2024/02/22 06:40:53;;;;;;;;;;;;;;;3.16;100.00;100530.77;109222;1278;22491;-60
2024/02/22 06:48:49;;;;;;;;;;;;;;;3.31;100.00;100522.64;108861;1287;22526;-65
2024/02/22 06:51:20;;;;;;;;;;;;;;;3.35;100.00;100517.25;109079;1292;22466;-57
2024/02/22 06:58:47;;;;;;;;;;;;;;;3.38;100.00;100505.27;108985;1283;22494;-55
2024/02/22 07:01:58;;;;;;;;;;;;;;;3.40;100.00;100508.61;108620;1283;22455;-59
2024/02/22 07:04:38;;;;;;;;;;;;;;;3.43;100.00;100510.08;108701;1288;23738;-63
2024/02/22 07:07:16;;;;;;;;;;;;;;;3.45;100.00;100510.50;108427;1293;22486;-63
2024/02/22 07:10:21;;;;;;;;;;;;;;;3.51;100.00;100511.35;108438;1289;23685;-63
2024/02/22 07:13:29;;;;;;;;;;;;;;;3.58;100.00;100511.45;108499;1289;23138;-58
2024/02/22 08:07:18;;;;;;;;;;;;;;;4.93;100.00;100501.48;107755;1295;22610;-57
2024/02/22 08:10:08;;;;;;;;;;;;;;;5.03;100.00;100501.23;100918;1293;8342855;-58
2024/02/22 08:13:10;;;;;;;;;;;;;;;5.13;100.00;100504.77;106580;1304;22537;-61
2024/02/22 08:32:27;;;;;;;;;;;;;;;5.53;100.00;100497.63;106859;1302;22496;-62
2024/02/22 08:43:21;;;;;;;;;;;;;;;5.82;100.00;100498.82;106993;1303;22591;-59
2024/02/22 08:46:16;;;;;;;;;;;;;;;5.94;100.00;100494.61;106982;1306;23198;-56
2024/02/22 08:49:07;;;;;;;;;;;;;;;6.06;100.00;100493.49;107043;1310;22491;-56
2024/02/22 08:52:03;;;;;;;;;;;;;;;6.18;100.00;100491.64;106935;1303;22493;-62
2024/02/22 08:54:46;;;;;;;;;;;;;;;6.31;100.00;100495.73;107216;1294;22517;-55
2024/02/22 08:57:33;;;;;;;;;;;;;;;6.45;100.00;100497.92;107106;1310;23327;-60
2024/02/22 09:01:03;;;;;;;;;;;;;;;6.61;99.88;100496.69;106945;1310;22562;-59
2024/02/22 09:04:17;;;;;;;;;;;;;;;6.91;99.88;100496.02;107143;1310;22557;-61
2024/02/22 09:08:25;;;;;;;;;;;;;;;7.22;97.55;100494.30;107275;1303;22552;-56
2024/02/22 09:12:08;;;;;;;;;;;;;;;7.49;96.33;100494.05;106765;1303;23636;-57
2024/02/22 09:14:51;;;;;;;;;;;;;;;7.62;95.62;100493.04;106844;1306;23458;-61
2024/02/22 09:17:35;;;;;;;;;;;;;;;7.70;94.96;100486.91;106660;1307;23250;-56
2024/02/22 09:20:13;;;;;;;;;;;;;;;7.75;94.28;100489.56;106828;1304;22522;-62
2024/02/22 09:22:48;;;;;;;;;;;;;;;7.78;92.42;100490.15;106850;1311;22533;-56
2024/02/22 09:30:17;;;;;;;;;;;;;;;7.82;89.26;100489.83;107038;1292;22591;-56
2024/02/22 09:32:47;;;;;;;;;;;;;;;7.84;89.43;100487.46;106968;1303;23139;-56
2024/02/22 09:35:17;;;;;;;;;;;;;;;7.89;87.77;100489.79;107075;1303;22949;-62
2024/02/22 09:37:47;;;;;;;;;;;;;;;7.91;87.82;100485.81;107061;1304;23278;-56
2024/02/22 09:40:15;;;;;;;;;;;;;;;7.91;87.92;100487.38;107056;1308;23068;-56
2024/02/22 09:42:42;;;;;;;;;;;;;;;7.89;87.98;100481.61;107113;1309;23378;-56
2024/02/22 09:45:16;;;;;;;;;;;;;;;7.84;87.30;100479.64;106984;1304;22485;-57
2024/02/22 09:48:45;;;;;;;;;;;;;;;7.79;88.68;100476.45;107040;1306;22930;-56
2024/02/22 09:51:12;;;;;;;;;;;;;;;7.77;89.38;100469.30;106891;1304;23080;-62
2024/02/22 09:53:45;;;;;;;;;;;;;;;7.79;90.27;100470.71;106812;1304;23308;-61
2024/02/22 09:56:50;;;;;;;;;;;;;;;7.81;91.19;100465.00;106972;1308;22579;-62
2024/02/22 09:59:40;;;;;;;;;;;;;;;7.84;92.34;100458.46;107036;1309;22567;-63
2024/02/22 10:06:16;;;;;;;;;;;;;;;8.03;89.79;100453.83;106792;1300;23393;-57
2024/02/22 10:33:03;;;;;;;;;;;;;;;9.02;90.59;100417.88;107124;1310;22505;-57
2024/02/22 10:40:26;;;;;;;;;;;;;;;9.18;89.53;100402.86;107107;1308;23067;-57
2024/02/22 10:43:57;;;;;;;;;;;;;;;9.49;89.05;100397.33;107041;1310;22512;-57
2024/02/22 10:56:04;;;;;;;;;;;;;;;10.20;84.47;100384.41;107129;1310;22520;-57
2024/02/22 10:59:26;;;;;;;;;;;;;;;10.38;83.45;100380.12;107117;1310;23231;-63
2024/02/22 11:03:27;;;;;;;;;;;;;;;10.89;82.00;100383.66;107167;1308;23108;-57
2024/02/22 11:07:24;;;;;;;;;;;;;;;11.14;79.97;100380.17;107221;1308;22503;-57
2024/02/22 11:24:03;;;;;;;;;;;;;;;10.36;82.56;100371.75;107037;1307;22553;-56
2024/02/22 11:27:33;;;;;;;;;;;;;;;10.51;82.47;100371.45;107028;1306;23265;-56
2024/02/22 11:30:24;;;;;;;;;;;;;;;10.57;83.12;100367.60;107131;1306;22490;-60
2024/02/22 11:33:15;;;;;;;;;;;;;;;10.70;82.74;100362.04;107073;1303;22535;-55
2024/02/22 11:36:18;;;;;;;;;;;;;;;10.78;82.22;100361.86;106903;1304;22619;-58
2024/02/22 11:39:38;;;;;;;;;;;;;;;10.77;81.50;100360.82;107017;1300;22517;-57
2024/02/22 11:42:26;;;;;;;;;;;;;;;10.67;81.06;100359.06;107013;1306;22926;-59
2024/02/22 11:44:54;;;;;;;;;;;;;;;10.54;81.03;100359.23;107001;1309;22527;-57
2024/02/22 11:47:25;;;;;;;;;;;;;;;10.46;81.43;100348.92;107026;1309;22941;-57
2024/02/22 11:49:55;;;;;;;;;;;;;;;10.68;81.84;100343.89;106987;1306;23060;-57
2024/02/22 11:52:25;;;;;;;;;;;;;;;11.13;80.68;100347.52;106990;1306;22520;-58
2024/02/22 11:54:55;;;;;;;;;;;;;;;11.24;79.71;100340.70;107010;1306;22991;-57
2024/02/22 11:57:25;;;;;;;;;;;;;;;11.15;79.84;100334.42;107013;1309;22473;-58
2024/02/22 11:59:52;;;;;;;;;;;;;;;11.35;78.26;100336.31;107074;1306;22569;-57
2024/02/22 12:05:57;;;;;;;;;;;;;;;11.44;77.10;100332.43;106565;1303;23211;-68
2024/02/22 12:08:42;;;;;;;;;;;;;;;11.65;76.40;100337.62;106805;1299;22589;-58
2024/02/22 12:11:20;;;;;;;;;;;;;;;11.49;75.89;100338.20;106995;1307;23216;-57
2024/02/22 12:13:55;;;;;;;;;;;;;;;11.10;77.26;100329.73;106763;1310;22487;-66
2024/02/22 12:16:23;;;;;;;;;;;;;;;10.91;78.81;100332.38;107005;1306;23348;-58
2024/02/22 12:18:50;;;;;;;;;;;;;;;11.01;77.46;100331.32;107024;1309;22511;-58
2024/02/22 12:21:19;;;;;;;;;;;;;;;11.18;76.54;100319.76;107099;1309;22464;-58
2024/02/22 12:23:47;;;;;;;;;;;;;;;11.35;78.14;100314.84;106973;1309;23310;-58
2024/02/22 12:26:17;;;;;;;;;;;;;;;11.55;76.94;100323.50;106609;1304;23207;-69
2024/02/22 12:29:20;;;;;;;;;;;;;;;11.46;76.57;100317.06;106920;1304;22495;-62
2024/02/22 12:32:04;;;;;;;;;;;;;;;11.34;76.77;100316.40;106956;1310;22481;-60
2024/02/22 12:34:32;;;;;;;;;;;;;;;11.35;75.96;100311.86;106999;1304;22457;-59
2024/02/22 12:37:00;;;;;;;;;;;;;;;11.32;75.31;100309.95;107136;1309;22795;-67
2024/02/22 12:39:28;;;;;;;;;;;;;;;11.24;76.21;100305.09;106952;1304;22509;-61
2024/02/22 12:42:02;;;;;;;;;;;;;;;11.17;76.52;100302.31;106903;1304;22495;-66
2024/02/22 12:44:44;;;;;;;;;;;;;;;11.24;76.55;100305.27;107076;1309;23162;-57
2024/02/22 12:47:13;;;;;;;;;;;;;;;11.24;75.88;100303.69;107018;1305;22695;-58
2024/02/22 12:49:42;;;;;;;;;;;;;;;11.11;75.74;100304.77;106993;1309;23298;-60
2024/02/22 12:52:14;;;;;;;;;;;;;;;11.00;75.94;100291.88;107106;1304;22482;-70
2024/02/22 12:54:42;;;;;;;;;;;;;;;11.17;76.23;100293.58;106982;1309;22562;-58
2024/02/22 13:01:41;;;;;;;;;;;;;;;11.59;73.83;100293.61;107011;1309;22461;-56
2024/02/22 13:04:18;;;;;;;;;;;;;;;11.65;74.06;100290.27;106879;1306;22511;-57
2024/02/22 13:10:38;;;;;;;;;;;;;;;11.93;70.97;100287.90;107008;1309;23110;-57
2024/02/22 13:13:15;;;;;;;;;;;;;;;11.99;69.72;100295.38;107092;1310;22611;-60
2024/02/22 13:15:46;;;;;;;;;;;;;;;12.00;69.14;100295.19;107022;1309;23035;-59
2024/02/22 13:18:14;;;;;;;;;;;;;;;11.84;69.54;100287.22;106943;1307;22494;-63
2024/02/22 13:20:49;;;;;;;;;;;;;;;11.65;70.28;100293.59;107083;1304;22463;-59
2024/02/22 13:27:58;;;;;;;;;;;;;;;11.24;69.70;100286.76;107111;1304;22549;-62
2024/02/22 13:31:37;;;;;;;;;;;;;;;11.09;71.22;100289.59;106924;1306;22488;-57
2024/02/22 13:34:15;;;;;;;;;;;;;;;11.05;70.54;100292.56;106943;1307;22515;-56
2024/02/22 13:36:59;;;;;;;;;;;;;;;10.92;71.36;100289.44;106964;1311;22505;-57
2024/02/22 13:39:52;;;;;;;;;;;;;;;10.81;71.65;100287.19;107003;1310;22522;-60
2024/02/22 13:43:22;;;;;;;;;;;;;;;10.95;72.51;100281.23;106652;1307;22519;-61
2024/02/22 13:47:17;;;;;;;;;;;;;;;11.29;72.52;100277.84;106632;1315;23247;-55
2024/02/22 13:49:59;;;;;;;;;;;;;;;11.31;72.67;100279.92;106656;1315;22550;-59
2024/02/22 13:52:29;;;;;;;;;;;;;;;11.26;72.29;100278.02;106700;1315;23953;-61
2024/02/22 13:54:57;;;;;;;;;;;;;;;11.35;71.56;100275.71;106579;1313;22566;-60
2024/02/22 13:57:30;;;;;;;;;;;;;;;11.27;70.71;100277.14;106687;1310;22685;-57
2024/02/22 13:59:58;;;;;;;;;;;;;;;11.09;70.88;100268.99;106724;1307;22570;-57
2024/02/22 14:02:26;;;;;;;;;;;;;;;10.97;71.47;100269.54;106578;1315;22472;-62
2024/02/22 14:04:55;;;;;;;;;;;;;;;10.93;71.95;100267.27;106623;1315;23392;-58
2024/02/22 14:07:27;;;;;;;;;;;;;;;11.04;71.56;100265.34;106733;1315;23749;-57
2024/02/22 14:10:47;;;;;;;;;;;;;;;11.41;70.54;100258.75;107212;1297;22538;-61
2024/02/22 14:13:20;;;;;;;;;;;;;;;11.40;70.20;100255.45;107008;1305;23256;-57
2024/02/22 14:15:50;;;;;;;;;;;;;;;11.43;70.98;100253.68;107016;1309;22499;-57
2024/02/22 14:18:21;;;;;;;;;;;;;;;11.50;70.74;100252.95;106982;1304;23026;-57
2024/02/22 14:20:54;;;;;;;;;;;;;;;11.33;71.17;100249.53;107030;1306;22464;-57
2024/02/22 14:23:25;;;;;;;;;;;;;;;11.26;71.91;100249.20;106920;1309;23215;-58
2024/02/22 14:26:16;;;;;;;;;;;;;;;11.52;72.40;100251.02;106995;1309;23412;-57
2024/02/22 14:28:59;;;;;;;;;;;;;;;11.89;71.78;100248.06;106972;1310;22574;-61
2024/02/22 14:31:34;;;;;;;;;;;;;;;12.15;70.91;100247.71;107127;1305;23155;-58
2024/02/22 14:34:13;;;;;;;;;;;;;;;12.29;69.42;100252.50;106966;1299;22498;-57
2024/02/22 14:36:49;;;;;;;;;;;;;;;12.26;69.60;100246.41;106918;1304;22502;-57
2024/02/22 14:39:25;;;;;;;;;;;;;;;12.31;69.85;100246.20;107021;1309;23348;-56
2024/02/22 14:42:05;;;;;;;;;;;;;;;12.38;69.88;100246.48;107055;1306;23064;-57
2024/02/22 14:44:46;;;;;;;;;;;;;;;12.36;69.84;100244.41;107010;1294;22508;-61
2024/02/22 14:48:32;;;;;;;;;;;;;;;12.22;70.16;100237.52;106947;1305;22509;-61
2024/02/22 14:51:01;;;;;;;;;;;;;;;12.17;70.56;100240.36;107204;1295;22523;-57
2024/02/22 14:53:39;;;;;;;;;;;;;;;12.15;70.44;100238.28;106911;1303;22520;-61
2024/02/22 14:56:08;;;;;;;;;;;;;;;12.07;70.88;100239.04;107079;1305;22989;-57
2024/02/22 14:58:36;;;;;;;;;;;;;;;11.96;71.21;100239.29;106899;1306;23245;-60
2024/02/22 15:01:03;;;;;;;;;;;;;;;11.77;71.63;100240.95;106914;1310;22499;-57
2024/02/22 15:03:32;;;;;;;;;;;;;;;11.55;71.99;100240.17;107062;1307;22538;-56
2024/02/22 15:06:00;;;;;;;;;;;;;;;11.28;72.33;100236.27;107086;1309;23226;-57
2024/02/22 15:08:37;;;;;;;;;;;;;;;10.90;73.42;100231.52;107270;1302;22502;-57
2024/02/22 15:11:05;;;;;;;;;;;;;;;10.45;74.87;100230.70;107037;1303;23024;-61
2024/02/22 15:13:33;;;;;;;;;;;;;;;10.04;76.31;100234.49;107192;1304;22529;-57
2024/02/22 15:16:00;;;;;;;;;;;;;;;9.70;77.72;100235.13;107101;1306;22884;-61
2024/02/22 15:18:28;;;;;;;;;;;;;;;9.39;79.03;100232.07;107269;1303;23390;-60
2024/02/22 15:20:55;;;;;;;;;;;;;;;9.13;80.20;100235.96;107312;1303;22479;-57
